createdAt,value
2019-05-03T00:00:18.707Z,9.93
2019-05-03T00:02:52.176Z,9.60
2019-05-03T00:05:26.300Z,9.23
2019-05-03T00:07:57.304Z,11.57
2019-05-03T00:10:26.870Z,12.33
2019-05-03T00:12:56.398Z,9.97
2019-05-03T00:15:27.636Z,8.80
2019-05-03T00:17:57.324Z,8.70
2019-05-03T00:20:26.916Z,8.90
2019-05-03T00:22:57.899Z,11.13
2019-05-03T00:25:27.429Z,12.40
2019-05-03T00:27:56.892Z,8.90
2019-05-03T00:30:26.336Z,10.80
2019-05-03T00:32:56.071Z,11.50
2019-05-03T00:35:36.032Z,10.00
2019-05-03T00:38:08.378Z,8.03
2019-05-03T00:40:37.949Z,7.63
2019-05-03T00:43:07.392Z,11.93
2019-05-03T00:45:36.859Z,13.27
2019-05-03T00:48:06.485Z,14.67
2019-05-03T00:50:35.928Z,14.93
2019-05-03T00:53:05.394Z,12.23
2019-05-03T00:55:34.857Z,12.70
2019-05-03T00:58:06.082Z,13.23
2019-05-03T01:00:35.631Z,13.40
2019-05-03T01:03:05.248Z,12.40
2019-05-03T01:05:35.442Z,15.67
2019-05-03T01:08:05.211Z,9.03
2019-05-03T01:10:34.675Z,12.33
2019-05-03T01:13:04.135Z,9.17
2019-05-03T01:15:35.246Z,13.53
2019-05-03T01:18:06.367Z,14.23
2019-05-03T01:20:35.976Z,13.60
2019-05-03T01:23:05.429Z,12.80
2019-05-03T01:25:35.609Z,9.97
2019-05-03T01:28:05.409Z,19.07
2019-05-03T01:30:34.868Z,13.47
2019-05-03T01:33:04.699Z,9.63
2019-05-03T01:35:34.285Z,16.73
2019-05-03T01:38:03.967Z,12.90
2019-05-03T01:40:33.421Z,11.57
2019-05-03T01:43:02.885Z,15.70
2019-05-03T01:45:32.466Z,14.87
2019-05-03T01:48:05.229Z,14.53
2019-05-03T01:50:36.301Z,16.63
2019-05-03T01:53:07.553Z,13.00
2019-05-03T01:55:52.482Z,13.00
2019-05-03T01:58:23.263Z,11.33
2019-05-03T02:01:07.474Z,11.57
2019-05-03T02:03:53.903Z,8.63
2019-05-03T02:06:23.380Z,7.57
2019-05-03T02:08:52.833Z,14.57
2019-05-03T02:11:22.360Z,10.17
2019-05-03T02:13:52.189Z,9.57
2019-05-03T02:16:21.974Z,6.87
2019-05-03T02:18:52.335Z,8.97
2019-05-03T02:21:22.046Z,12.10
2019-05-03T02:23:52.048Z,8.17
2019-05-03T02:26:22.436Z,8.57
2019-05-03T02:28:52.738Z,9.47
2019-05-03T02:31:23.122Z,9.03
2019-05-03T02:33:53.632Z,13.77
2019-05-03T02:36:23.541Z,13.53
2019-05-03T02:38:53.665Z,8.67
2019-05-03T02:41:23.318Z,12.00
2019-05-03T02:43:57.139Z,14.17
2019-05-03T02:46:28.231Z,10.33
2019-05-03T02:49:06.427Z,17.10
2019-05-03T02:51:36.289Z,12.27
2019-05-03T02:54:05.993Z,12.30
2019-05-03T02:56:35.948Z,12.17
2019-05-03T02:59:06.334Z,14.90
2019-05-03T03:01:36.297Z,14.53
2019-05-03T03:04:06.137Z,14.60
2019-05-03T03:06:37.079Z,13.07
2019-05-03T03:09:07.440Z,9.03
2019-05-03T03:11:39.161Z,10.20
2019-05-03T03:14:10.662Z,9.93
2019-05-03T03:16:45.533Z,9.13
2019-05-03T03:19:16.728Z,10.80
2019-05-03T03:21:48.889Z,7.90
2019-05-03T03:24:20.457Z,11.77
2019-05-03T03:26:51.803Z,10.07
2019-05-03T03:29:25.267Z,12.13
2019-05-03T03:32:09.936Z,16.17
2019-05-03T03:35:11.962Z,11.70
2019-05-03T03:37:40.749Z,13.10
2019-05-03T03:40:10.347Z,11.97
2019-05-03T03:42:40.805Z,11.37
2019-05-03T03:45:11.099Z,14.70
2019-05-03T03:47:40.795Z,11.70
2019-05-03T03:50:11.947Z,17.20
2019-05-03T03:52:45.027Z,11.70
2019-05-03T03:55:16.147Z,9.43
2019-05-03T03:57:46.821Z,8.23
2019-05-03T04:00:17.907Z,15.47
2019-05-03T04:02:47.629Z,16.13
2019-05-03T04:05:17.298Z,13.93
2019-05-03T04:07:47.026Z,10.83
2019-05-03T04:10:16.524Z,10.17
2019-05-03T04:12:47.492Z,12.00
2019-05-03T04:15:30.985Z,11.80
2019-05-03T04:18:09.283Z,12.03
2019-05-03T04:20:38.850Z,13.07
2019-05-03T04:23:08.475Z,15.07
2019-05-03T04:25:38.315Z,12.10
2019-05-03T04:28:08.486Z,10.90
2019-05-03T04:30:37.976Z,10.63
2019-05-03T04:33:07.723Z,14.90
2019-05-03T04:35:37.323Z,9.67
2019-05-03T04:38:06.796Z,10.13
2019-05-03T04:40:36.269Z,12.67
2019-05-03T04:43:10.027Z,12.60
2019-05-03T04:45:39.457Z,13.93
2019-05-03T04:48:09.160Z,11.57
2019-05-03T04:50:38.597Z,14.93
2019-05-03T04:53:08.225Z,12.87
2019-05-03T04:55:37.647Z,8.97
2019-05-03T04:58:07.101Z,9.50
2019-05-03T05:00:36.497Z,9.03
2019-05-03T05:03:06.302Z,12.07
2019-05-03T05:05:36.453Z,17.20
2019-05-03T05:08:06.358Z,13.37
2019-05-03T05:10:36.377Z,10.77
2019-05-03T05:13:07.445Z,11.00
2019-05-03T05:15:36.916Z,10.70
2019-05-03T05:18:10.484Z,13.37
2019-05-03T05:20:56.701Z,6.53
2019-05-03T05:23:26.609Z,11.50
2019-05-03T05:26:05.539Z,14.23
2019-05-03T05:28:44.722Z,13.23
2019-05-03T05:31:15.185Z,9.90
2019-05-03T05:33:44.851Z,10.87
2019-05-03T05:36:15.276Z,14.90
2019-05-03T05:38:45.192Z,9.63
2019-05-03T05:41:15.639Z,9.43
2019-05-03T05:43:45.301Z,12.90
2019-05-03T05:46:15.432Z,14.00
2019-05-03T05:48:49.250Z,18.10
2019-05-03T05:51:18.689Z,12.77
2019-05-03T05:53:48.125Z,12.40
2019-05-03T05:56:35.373Z,9.73
2019-05-03T05:59:14.703Z,10.87
2019-05-03T06:01:45.750Z,14.87
2019-05-03T06:04:15.473Z,12.57
2019-05-03T06:06:52.365Z,13.17
2019-05-03T06:09:29.093Z,9.47
2019-05-03T06:12:00.170Z,15.30
2019-05-03T06:14:34.698Z,7.90
2019-05-03T06:17:08.998Z,13.37
2019-05-03T06:19:44.918Z,12.00
2019-05-03T06:22:16.096Z,10.93
2019-05-03T06:24:47.178Z,11.30
2019-05-03T06:27:24.560Z,13.67
2019-05-03T06:29:55.645Z,7.47
2019-05-03T06:32:28.419Z,8.37
2019-05-03T06:34:57.821Z,8.07
2019-05-03T06:37:28.942Z,7.97
2019-05-03T06:39:58.513Z,7.73
2019-05-03T06:42:28.612Z,9.47
2019-05-03T06:44:59.169Z,9.73
2019-05-03T06:47:29.238Z,5.73
2019-05-03T06:49:58.700Z,8.37
2019-05-03T06:52:29.443Z,9.40
2019-05-03T06:55:00.318Z,10.50
2019-05-03T06:57:30.412Z,9.27
2019-05-03T07:00:01.490Z,8.03
2019-05-03T07:02:32.645Z,12.30
2019-05-03T07:05:10.666Z,11.50
2019-05-03T07:07:47.642Z,10.70
2019-05-03T07:10:27.557Z,7.13
2019-05-03T07:13:01.705Z,10.43
2019-05-03T07:15:35.138Z,8.90
2019-05-03T07:18:05.772Z,6.67
2019-05-03T07:20:46.025Z,8.37
2019-05-03T07:23:15.794Z,10.47
2019-05-03T07:25:45.641Z,9.20
2019-05-03T07:28:15.211Z,11.37
2019-05-03T07:30:45.346Z,10.83
2019-05-03T07:33:16.894Z,10.63
2019-05-03T07:35:47.935Z,9.47
2019-05-03T07:38:18.707Z,8.30
2019-05-03T07:40:49.110Z,9.83
2019-05-03T07:43:18.920Z,7.80
2019-05-03T07:45:48.504Z,8.60
2019-05-03T07:48:18.038Z,11.47
2019-05-03T07:50:47.558Z,8.77
2019-05-03T07:53:17.081Z,12.43
2019-05-03T07:55:51.303Z,9.17
2019-05-03T07:58:28.389Z,8.70
2019-05-03T08:01:06.277Z,7.40
2019-05-03T08:03:31.280Z,9.53
2019-05-03T08:06:04.575Z,10.37
2019-05-03T08:08:35.358Z,10.10
2019-05-03T08:11:05.649Z,8.90
2019-05-03T08:13:35.703Z,12.53
2019-05-03T08:16:06.043Z,9.57
2019-05-03T08:18:35.774Z,10.13
2019-05-03T08:21:06.101Z,8.67
2019-05-03T08:23:36.323Z,6.40
2019-05-03T08:26:09.092Z,11.00
2019-05-03T08:28:38.519Z,7.53
2019-05-03T08:31:15.387Z,6.73
2019-05-03T08:33:52.599Z,8.17
2019-05-03T08:36:22.122Z,7.57
2019-05-03T08:38:51.721Z,5.83
2019-05-03T08:41:24.638Z,5.60
2019-05-03T08:43:55.012Z,8.67
2019-05-03T08:46:25.372Z,7.10
2019-05-03T08:48:55.084Z,6.43
2019-05-03T08:51:25.138Z,5.83
2019-05-03T08:53:55.991Z,6.57
2019-05-03T08:56:27.236Z,7.83
2019-05-03T08:58:56.955Z,6.03
2019-05-03T09:01:26.573Z,9.43
2019-05-03T09:03:56.220Z,7.77
2019-05-03T09:06:25.940Z,7.03
2019-05-03T09:08:57.274Z,5.40
2019-05-03T09:11:34.035Z,4.97
2019-05-03T09:14:05.003Z,7.80
2019-05-03T09:16:35.567Z,7.47
2019-05-03T09:19:05.648Z,5.90
2019-05-03T09:21:36.849Z,8.90
2019-05-03T09:24:06.551Z,8.03
2019-05-03T09:26:36.175Z,4.33
2019-05-03T09:29:05.739Z,6.47
2019-05-03T09:31:35.835Z,7.07
2019-05-03T09:34:08.087Z,10.13
2019-05-03T09:36:36.730Z,5.97
2019-05-03T09:39:08.170Z,6.47
2019-05-03T09:41:37.617Z,5.57
2019-05-03T09:44:07.112Z,6.13
2019-05-03T09:46:36.545Z,8.47
2019-05-03T09:49:13.472Z,6.97
2019-05-03T09:51:39.844Z,7.70
2019-05-03T09:54:14.867Z,10.20
2019-05-03T09:56:58.662Z,7.83
2019-05-03T09:59:29.773Z,10.50
2019-05-03T10:01:59.953Z,5.90
2019-05-03T10:04:29.351Z,5.57
2019-05-03T10:07:00.366Z,8.50
2019-05-03T10:09:29.885Z,11.03
2019-05-03T10:12:00.261Z,8.00
2019-05-03T10:14:29.655Z,6.83
2019-05-03T10:17:09.717Z,10.27
2019-05-03T10:19:40.456Z,6.83
2019-05-03T10:22:10.494Z,6.37
2019-05-03T10:24:39.962Z,6.03
2019-05-03T10:27:09.865Z,7.10
2019-05-03T10:29:39.314Z,6.20
2019-05-03T10:32:19.401Z,9.00
2019-05-03T10:34:56.707Z,6.53
2019-05-03T10:37:35.825Z,10.07
2019-05-03T10:40:08.100Z,6.33
2019-05-03T10:42:38.257Z,6.47
2019-05-03T10:45:08.406Z,7.60
2019-05-03T10:47:37.872Z,7.00
2019-05-03T10:50:08.412Z,7.93
2019-05-03T10:52:40.466Z,10.17
2019-05-03T10:55:10.264Z,7.50
2019-05-03T10:57:41.516Z,6.93
2019-05-03T11:00:40.902Z,4.67
2019-05-03T11:02:55.084Z,5.93
2019-05-03T11:05:24.689Z,4.70
2019-05-03T11:07:55.592Z,6.77
2019-05-03T11:10:25.418Z,5.87
2019-05-03T11:12:54.951Z,7.00
2019-05-03T11:15:25.913Z,6.10
2019-05-03T11:17:55.458Z,6.77
2019-05-03T11:20:35.654Z,7.80
2019-05-03T11:23:07.008Z,6.20
2019-05-03T11:25:37.322Z,9.60
2019-05-03T11:28:20.932Z,4.53
2019-05-03T11:30:55.684Z,5.57
2019-05-03T11:33:26.043Z,5.50
2019-05-03T11:35:57.360Z,6.53
2019-05-03T11:38:31.395Z,3.23
2019-05-03T11:41:00.814Z,8.23
2019-05-03T11:43:31.884Z,4.57
2019-05-03T11:46:01.278Z,5.60
2019-05-03T11:48:30.919Z,6.23
2019-05-03T11:51:00.323Z,7.93
2019-05-03T11:53:29.940Z,9.13
2019-05-03T11:55:59.345Z,6.23
2019-05-03T11:58:30.240Z,5.97
2019-05-03T12:01:14.963Z,7.90
2019-05-03T12:03:37.307Z,8.23
2019-05-03T12:06:06.953Z,9.20
2019-05-03T12:08:36.399Z,8.87
2019-05-03T12:11:05.964Z,6.17
2019-05-03T12:13:37.018Z,7.47
2019-05-03T12:16:17.081Z,7.33
2019-05-03T12:18:48.884Z,5.27
2019-05-03T12:21:10.544Z,6.20
2019-05-03T12:23:40.766Z,5.17
2019-05-03T12:26:13.491Z,7.40
2019-05-03T12:28:41.708Z,5.33
2019-05-03T12:31:25.719Z,8.70
2019-05-03T12:33:42.241Z,5.97
2019-05-03T12:36:11.708Z,9.57
2019-05-03T12:38:41.168Z,7.87
2019-05-03T12:41:10.717Z,9.90
2019-05-03T12:43:40.158Z,5.37
2019-05-03T12:46:09.580Z,7.43
2019-05-03T12:48:39.027Z,8.63
2019-05-03T12:51:08.997Z,4.70
2019-05-03T12:53:38.771Z,4.03
2019-05-03T12:56:12.360Z,4.80
2019-05-03T12:58:50.278Z,6.10
2019-05-03T13:01:21.587Z,4.87
2019-05-03T13:03:52.696Z,5.40
2019-05-03T13:06:22.130Z,5.73
2019-05-03T13:08:51.558Z,4.33
2019-05-03T13:11:21.060Z,5.57
2019-05-03T13:13:50.543Z,4.13
2019-05-03T13:16:20.995Z,3.50
2019-05-03T13:18:50.440Z,4.43
2019-05-03T13:21:19.882Z,5.93
2019-05-03T13:23:49.507Z,3.30
2019-05-03T13:26:18.921Z,5.10
2019-05-03T13:28:48.686Z,7.40
2019-05-03T13:31:18.274Z,5.70
2019-05-03T13:33:47.710Z,6.87
2019-05-03T13:36:17.167Z,3.97
2019-05-03T13:38:46.682Z,8.17
2019-05-03T13:41:16.126Z,9.07
2019-05-03T13:43:45.638Z,5.60
2019-05-03T13:46:15.635Z,5.93
2019-05-03T13:48:48.850Z,7.40
2019-05-03T13:51:16.538Z,6.47
2019-05-03T13:53:46.039Z,6.83
2019-05-03T13:56:15.616Z,5.97
2019-05-03T13:58:45.054Z,6.23
2019-05-03T14:01:14.845Z,3.87
2019-05-03T14:03:45.230Z,3.50
2019-05-03T14:06:14.977Z,7.43
2019-05-03T14:08:45.703Z,12.03
2019-05-03T14:11:15.655Z,5.43
2019-05-03T14:13:45.279Z,5.50
2019-05-03T14:16:14.883Z,5.87
2019-05-03T14:18:47.482Z,6.37
2019-05-03T14:21:30.562Z,4.97
2019-05-03T14:24:07.735Z,4.80
2019-05-03T14:26:37.768Z,5.27
2019-05-03T14:29:07.380Z,7.17
2019-05-03T14:31:36.882Z,6.53
2019-05-03T14:34:06.401Z,12.10
2019-05-03T14:36:36.110Z,7.00
2019-05-03T14:39:09.749Z,6.43
2019-05-03T14:41:38.815Z,7.33
2019-05-03T14:44:08.754Z,6.07
2019-05-03T14:46:38.415Z,7.50
2019-05-03T14:49:07.899Z,5.30
2019-05-03T14:51:37.516Z,7.40
2019-05-03T14:54:07.741Z,7.77
2019-05-03T14:56:40.347Z,8.57
2019-05-03T14:59:14.868Z,6.00
2019-05-03T15:01:46.047Z,4.40
2019-05-03T15:04:15.583Z,8.67
2019-05-03T15:06:46.036Z,5.57
2019-05-03T15:09:18.902Z,8.23
2019-05-03T15:11:47.586Z,8.40
2019-05-03T15:14:17.011Z,6.27
2019-05-03T15:16:46.521Z,6.57
2019-05-03T15:19:16.554Z,5.97
2019-05-03T15:21:46.356Z,5.70
2019-05-03T15:24:16.074Z,7.17
2019-05-03T15:26:45.616Z,4.77
2019-05-03T15:29:15.630Z,5.10
2019-05-03T15:31:45.138Z,5.53
2019-05-03T15:34:15.244Z,8.20
2019-05-03T15:36:45.147Z,7.77
2019-05-03T15:39:15.375Z,9.77
2019-05-03T15:41:45.097Z,6.87
2019-05-03T15:44:25.336Z,7.10
2019-05-03T15:46:56.479Z,8.30
2019-05-03T15:49:27.722Z,7.60
2019-05-03T15:51:57.311Z,7.17
2019-05-03T15:54:26.735Z,6.23
2019-05-03T15:56:56.145Z,5.67
2019-05-03T15:59:25.662Z,7.23
2019-05-03T16:01:55.366Z,6.90
2019-05-03T16:04:25.114Z,5.37
2019-05-03T16:06:55.435Z,8.00
2019-05-03T16:09:25.123Z,7.57
2019-05-03T16:11:56.031Z,10.87
2019-05-03T16:14:26.980Z,5.50
2019-05-03T16:16:56.406Z,5.97
2019-05-03T16:19:25.922Z,8.67
2019-05-03T16:21:55.410Z,6.13
2019-05-03T16:24:25.025Z,3.77
2019-05-03T16:27:15.876Z,6.87
2019-05-03T16:29:46.249Z,5.97
2019-05-03T16:32:15.710Z,5.43
2019-05-03T16:34:45.135Z,5.67
2019-05-03T16:37:14.927Z,6.83
2019-05-03T16:39:45.398Z,3.50
2019-05-03T16:42:15.396Z,8.80
2019-05-03T16:44:44.941Z,6.57
2019-05-03T16:47:15.673Z,8.40
2019-05-03T16:49:45.294Z,6.43
2019-05-03T16:52:17.275Z,6.93
2019-05-03T16:54:45.830Z,4.87
2019-05-03T16:57:17.494Z,7.17
2019-05-03T16:59:47.103Z,6.63
2019-05-03T17:02:17.384Z,8.50
2019-05-03T17:04:48.619Z,5.87
2019-05-03T17:07:22.490Z,8.90
2019-05-03T17:09:56.599Z,8.80
2019-05-03T17:12:34.806Z,6.47
2019-05-03T17:15:07.591Z,10.53
2019-05-03T17:17:37.009Z,6.50
2019-05-03T17:20:08.332Z,6.63
2019-05-03T17:22:37.772Z,5.80
2019-05-03T17:25:07.273Z,4.93
2019-05-03T17:27:36.655Z,6.73
2019-05-03T17:30:07.926Z,6.40
2019-05-03T17:32:37.317Z,8.63
2019-05-03T17:35:07.283Z,7.07
2019-05-03T17:37:36.727Z,7.27
2019-05-03T17:40:24.607Z,7.00
2019-05-03T17:42:55.935Z,8.40
2019-05-03T17:45:45.441Z,5.03
2019-05-03T17:48:15.077Z,7.50
2019-05-03T17:50:45.409Z,7.23
2019-05-03T17:53:28.712Z,8.93
2019-05-03T17:56:08.519Z,7.27
2019-05-03T17:58:39.602Z,7.23
2019-05-03T18:01:26.961Z,3.90
2019-05-03T18:04:10.211Z,4.53
2019-05-03T18:06:57.912Z,7.03
2019-05-03T18:09:28.992Z,6.20
2019-05-03T18:12:04.584Z,6.67
2019-05-03T18:14:34.557Z,6.03
2019-05-03T18:17:05.721Z,7.43
2019-05-03T18:19:35.288Z,7.57
2019-05-03T18:22:05.304Z,5.97
2019-05-03T18:24:35.273Z,7.93
2019-05-03T18:27:05.064Z,6.83
2019-05-03T18:29:34.764Z,7.40
2019-05-03T18:32:05.504Z,7.10
2019-05-03T18:34:36.693Z,9.80
2019-05-03T18:37:06.224Z,5.90
2019-05-03T18:39:35.900Z,7.73
2019-05-03T18:42:06.999Z,6.47
2019-05-03T18:44:40.706Z,8.23
2019-05-03T18:47:21.194Z,5.83
2019-05-03T18:49:50.781Z,8.67
2019-05-03T18:52:20.381Z,9.87
2019-05-03T18:54:49.889Z,8.97
2019-05-03T18:57:19.353Z,12.27
2019-05-03T18:59:48.743Z,12.10
2019-05-03T19:02:18.638Z,12.70
2019-05-03T19:04:49.741Z,7.57
2019-05-03T19:07:28.326Z,7.63
2019-05-03T19:12:55.281Z,8.70
2019-05-03T19:15:25.178Z,9.50
2019-05-03T19:17:56.492Z,9.13
2019-05-03T19:20:26.038Z,17.27
2019-05-03T19:22:55.797Z,7.80
2019-05-03T19:25:25.640Z,12.83
2019-05-03T19:27:55.188Z,7.90
2019-05-03T19:30:24.863Z,10.97
2019-05-03T19:32:55.178Z,11.80
2019-05-03T19:35:27.806Z,13.97
2019-05-03T19:37:57.553Z,9.73
2019-05-03T19:40:28.613Z,14.37
2019-05-03T19:42:58.048Z,13.30
2019-05-03T19:45:27.618Z,11.83
2019-05-03T19:47:57.045Z,9.70
2019-05-03T19:50:27.360Z,12.10
2019-05-03T19:52:58.574Z,11.27
2019-05-03T19:55:28.040Z,10.50
2019-05-03T19:57:57.477Z,12.27
2019-05-03T20:00:31.663Z,7.73
2019-05-03T20:03:08.100Z,15.23
2019-05-03T20:05:41.021Z,12.20
2019-05-03T20:08:12.107Z,10.00
2019-05-03T20:10:41.576Z,15.20
2019-05-03T20:13:11.015Z,14.87
2019-05-03T20:15:40.449Z,12.17
2019-05-03T20:18:10.163Z,12.83
2019-05-03T20:20:41.376Z,9.03
2019-05-03T20:23:10.798Z,13.83
2019-05-03T20:25:40.232Z,7.63
2019-05-03T20:28:09.811Z,12.60
2019-05-03T20:30:39.686Z,13.63
2019-05-03T20:33:09.081Z,7.97
2019-05-03T20:35:38.508Z,11.33
2019-05-03T20:38:07.908Z,11.23
2019-05-03T20:40:37.404Z,9.77
2019-05-03T20:43:08.558Z,9.90
2019-05-03T20:45:39.635Z,11.27
2019-05-03T20:48:10.669Z,8.47
2019-05-03T20:50:40.112Z,4.87
2019-05-03T20:53:09.518Z,11.03
2019-05-03T20:55:38.951Z,14.60
2019-05-03T20:58:11.407Z,9.77
2019-05-03T21:00:40.718Z,9.90
2019-05-03T21:03:10.126Z,12.40
2019-05-03T21:05:39.571Z,10.17
2019-05-03T21:08:09.061Z,7.20
2019-05-03T21:10:38.499Z,14.07
2019-05-03T21:13:08.822Z,10.43
2019-05-03T21:15:50.375Z,9.70
2019-05-03T21:18:34.523Z,13.70
2019-05-03T21:21:12.022Z,11.70
2019-05-03T21:24:01.723Z,14.57
2019-05-03T21:26:31.315Z,11.03
2019-05-03T21:29:00.756Z,13.57
2019-05-03T21:31:30.192Z,12.77
2019-05-03T21:33:59.615Z,10.27
2019-05-03T21:36:29.177Z,9.77
2019-05-03T21:38:59.082Z,13.47
2019-05-03T21:41:28.509Z,10.50
2019-05-03T21:43:58.020Z,7.97
2019-05-03T21:46:34.980Z,9.43
2019-05-03T21:49:09.995Z,8.17
2019-05-03T21:51:39.536Z,6.23
2019-05-03T21:54:09.078Z,10.97
2019-05-03T21:56:38.484Z,5.80
2019-05-03T21:59:07.993Z,6.20
2019-05-03T22:01:39.136Z,6.70
2019-05-03T22:04:08.907Z,9.90
2019-05-03T22:06:40.085Z,10.97
2019-05-03T22:09:09.869Z,11.83
2019-05-03T22:11:39.419Z,8.30
2019-05-03T22:14:10.567Z,13.20
2019-05-03T22:16:41.801Z,11.10
2019-05-03T22:19:11.406Z,13.43
2019-05-03T22:21:45.366Z,9.37
2019-05-03T22:24:22.205Z,11.90
2019-05-03T22:26:53.287Z,12.23
2019-05-03T22:29:22.706Z,11.90
2019-05-03T22:31:52.099Z,11.93
2019-05-03T22:34:21.546Z,12.17
2019-05-03T22:36:50.942Z,13.10
2019-05-03T22:39:20.379Z,8.03
2019-05-03T22:41:49.783Z,11.70
2019-05-03T22:44:19.224Z,15.77
2019-05-03T22:46:48.628Z,10.90
2019-05-03T22:49:18.050Z,16.67
2019-05-03T22:51:47.448Z,11.67
2019-05-03T22:54:16.983Z,16.93
2019-05-03T22:56:46.371Z,10.30
2019-05-03T22:59:15.888Z,12.30
2019-05-03T23:01:45.885Z,10.57
2019-05-03T23:04:15.496Z,8.43
2019-05-03T23:06:47.055Z,10.77
2019-05-03T23:09:16.158Z,8.43
2019-05-03T23:11:47.094Z,9.83
2019-05-03T23:14:16.624Z,8.13
2019-05-03T23:16:46.061Z,9.17
2019-05-03T23:19:15.565Z,6.63
2019-05-03T23:21:46.711Z,6.10
2019-05-03T23:24:16.126Z,10.90
2019-05-03T23:26:45.585Z,6.43
2019-05-03T23:29:15.163Z,10.47
2019-05-03T23:31:46.113Z,8.47
2019-05-03T23:34:15.532Z,7.97
2019-05-03T23:36:45.565Z,10.33
2019-05-03T23:39:16.267Z,10.33
2019-05-03T23:41:45.688Z,14.20
2019-05-03T23:44:15.257Z,13.20
2019-05-03T23:46:47.307Z,9.37
2019-05-03T23:49:16.733Z,9.43
2019-05-03T23:51:50.530Z,12.40
2019-05-03T23:54:20.404Z,11.63
2019-05-03T23:56:51.560Z,11.83
2019-05-03T23:59:20.999Z,11.13
